createdAt,value
2023-04-07T00:01:12.708Z,97638.49
2023-04-07T00:04:15.810Z,97635.60
2023-04-07T00:07:18.813Z,97632.01
2023-04-07T00:10:21.838Z,97631.38
2023-04-07T00:13:24.677Z,97628.80
2023-04-07T00:16:27.778Z,97627.95
2023-04-07T00:19:38.132Z,97625.83
2023-04-07T00:22:43.299Z,97622.94
2023-04-07T00:25:48.319Z,97619.86
2023-04-07T00:28:51.259Z,97617.09
2023-04-07T00:31:54.688Z,97614.48
2023-04-07T00:34:57.574Z,97608.66
2023-04-07T00:38:00.406Z,97605.00
2023-04-07T00:41:03.214Z,97605.02
2023-04-07T00:44:06.042Z,97601.17
2023-04-07T00:47:09.013Z,97597.12
2023-04-07T00:50:12.034Z,97598.84
2023-04-07T00:53:16.437Z,97594.95
2023-04-07T00:56:19.844Z,97594.80
2023-04-07T00:59:22.915Z,97591.20
2023-04-07T01:02:37.560Z,97589.86
2023-04-07T01:05:56.755Z,97586.36
2023-04-07T01:09:13.918Z,97581.89
2023-04-07T01:12:47.520Z,97578.18
2023-04-07T01:15:53.124Z,97573.46
2023-04-07T01:19:01.894Z,97575.42
2023-04-07T01:22:13.404Z,97570.39
2023-04-07T01:25:33.223Z,97571.12
2023-04-07T01:29:08.888Z,97573.20
2023-04-07T01:32:12.804Z,97573.96
2023-04-07T01:35:17.052Z,97571.58
2023-04-07T01:38:22.702Z,97568.14
2023-04-07T01:41:26.940Z,97569.38
2023-04-07T01:44:32.933Z,97565.60
2023-04-07T01:47:39.386Z,97563.77
2023-04-07T01:50:43.458Z,97554.73
2023-04-07T01:53:47.989Z,97551.42
2023-04-07T01:56:51.572Z,97554.40
2023-04-07T01:59:55.700Z,97557.60
2023-04-07T02:03:03.984Z,97550.83
2023-04-07T02:06:08.844Z,97547.06
2023-04-07T02:09:16.221Z,97547.30
2023-04-07T02:12:20.873Z,97550.75
2023-04-07T02:15:25.698Z,97554.23
2023-04-07T02:18:32.548Z,97555.08
2023-04-07T02:21:36.620Z,97553.33
2023-04-07T02:24:42.967Z,97553.55
2023-04-07T02:27:47.131Z,97554.85
2023-04-07T02:30:50.257Z,97557.84
2023-04-07T02:33:53.305Z,97556.00
2023-04-07T02:36:57.429Z,97549.23
2023-04-07T02:40:01.110Z,97545.80
2023-04-07T02:43:05.959Z,97547.89
2023-04-07T02:46:09.612Z,97549.59
2023-04-07T02:49:13.237Z,97543.41
2023-04-07T02:52:17.473Z,97534.26
2023-04-07T02:55:20.492Z,97540.59
2023-04-07T02:58:25.596Z,97539.50
2023-04-07T03:01:28.799Z,97537.96
2023-04-07T03:04:32.469Z,97530.19
2023-04-07T03:07:36.108Z,97534.90
2023-04-07T03:10:39.281Z,97533.02
2023-04-07T03:13:42.535Z,97538.95
2023-04-07T03:16:45.847Z,97543.21
2023-04-07T03:19:52.104Z,97538.46
2023-04-07T03:22:55.562Z,97541.13
2023-04-07T03:25:58.711Z,97538.18
2023-04-07T03:29:04.484Z,97531.95
2023-04-07T03:32:07.692Z,97533.30
2023-04-07T03:35:13.211Z,97530.65
2023-04-07T03:38:16.815Z,97524.11
2023-04-07T03:41:36.895Z,97519.77
2023-04-07T03:44:40.976Z,97522.71
2023-04-07T03:47:45.433Z,97531.48
2023-04-07T03:50:48.510Z,97531.97
2023-04-07T03:53:51.849Z,97537.60
2023-04-07T03:56:55.325Z,97543.52
2023-04-07T03:59:58.453Z,97543.27
2023-04-07T04:03:02.315Z,97541.63
2023-04-07T04:06:05.993Z,97543.83
2023-04-07T04:09:09.149Z,97539.86
2023-04-07T04:12:12.852Z,97538.34
2023-04-07T04:15:24.728Z,97540.45
2023-04-07T04:18:28.666Z,97538.75
2023-04-07T04:21:36.859Z,97538.55
2023-04-07T04:25:35.555Z,97543.19
2023-04-07T04:28:39.089Z,97547.75
2023-04-07T04:31:42.243Z,97552.78
2023-04-07T04:34:45.834Z,97550.68
2023-04-07T04:37:48.988Z,97555.92
2023-04-07T04:40:52.176Z,97563.49
2023-04-07T04:43:55.338Z,97556.31
2023-04-07T04:46:58.518Z,97556.20
2023-04-07T04:50:01.609Z,97551.09
2023-04-07T04:53:04.711Z,97547.53
2023-04-07T04:56:09.363Z,97550.52
2023-04-07T04:59:12.547Z,97547.41
2023-04-07T05:02:16.504Z,97552.39
2023-04-07T05:05:20.271Z,97550.16
2023-04-07T05:08:23.564Z,97552.81
2023-04-07T05:11:26.798Z,97551.23
2023-04-07T05:14:29.761Z,97547.67
2023-04-07T05:17:33.435Z,97548.36
2023-04-07T05:20:36.727Z,97546.20
2023-04-07T05:23:39.704Z,97551.16
2023-04-07T05:26:42.588Z,97556.17
2023-04-07T05:29:45.870Z,97549.08
2023-04-07T05:32:48.717Z,97551.88
2023-04-07T05:35:51.752Z,97550.23
2023-04-07T05:38:54.774Z,97550.63
2023-04-07T05:41:58.322Z,97550.69
2023-04-07T05:45:01.312Z,97543.93
2023-04-07T05:48:04.644Z,97546.86
2023-04-07T05:51:07.590Z,97551.88
2023-04-07T05:54:11.270Z,97555.02
2023-04-07T05:57:14.254Z,97554.70
2023-04-07T06:00:17.432Z,97546.26
2023-04-07T06:03:20.627Z,97553.19
2023-04-07T06:06:23.639Z,97552.20
2023-04-07T06:09:26.764Z,97553.97
2023-04-07T06:12:29.619Z,97553.94
2023-04-07T06:15:32.594Z,97554.36
2023-04-07T06:18:35.676Z,97555.10
2023-04-07T06:21:40.125Z,97550.05
2023-04-07T06:24:43.120Z,97544.42
2023-04-07T06:27:46.242Z,97544.08
2023-04-07T06:30:49.324Z,97536.60
2023-04-07T06:33:52.167Z,97536.69
2023-04-07T06:36:57.410Z,97532.96
2023-04-07T06:40:01.036Z,97532.39
2023-04-07T06:43:04.296Z,97537.04
2023-04-07T06:46:07.084Z,97538.39
2023-04-07T06:49:09.968Z,97542.16
2023-04-07T06:52:12.857Z,97547.80
2023-04-07T06:55:15.837Z,97553.75
2023-04-07T06:58:18.671Z,97560.44
2023-04-07T07:01:22.581Z,97560.77
2023-04-07T07:04:25.627Z,97558.35
2023-04-07T07:07:28.673Z,97560.73
2023-04-07T07:10:31.486Z,97563.30
2023-04-07T07:13:34.421Z,97565.00
2023-04-07T07:16:37.425Z,97574.02
2023-04-07T07:19:40.255Z,97574.48
2023-04-07T07:22:43.194Z,97571.43
2023-04-07T07:25:46.017Z,97567.05
2023-04-07T07:28:48.884Z,97561.85
2023-04-07T07:31:52.303Z,97562.71
2023-04-07T07:34:55.881Z,97566.77
2023-04-07T07:37:58.978Z,97566.45
2023-04-07T07:41:02.578Z,97571.15
2023-04-07T07:44:05.474Z,97570.04
2023-04-07T07:47:08.501Z,97577.93
2023-04-07T07:50:11.452Z,97578.59
2023-04-07T07:53:14.323Z,97581.09
2023-04-07T07:56:17.275Z,97578.56
2023-04-07T07:59:20.135Z,97571.35
2023-04-07T08:02:23.187Z,97573.09
2023-04-07T08:05:26.445Z,97576.91
2023-04-07T08:08:29.354Z,97572.96
2023-04-07T08:11:32.187Z,97574.23
2023-04-07T08:14:35.173Z,97575.08
2023-04-07T08:17:38.504Z,97570.55
2023-04-07T08:20:41.770Z,97578.55
2023-04-07T08:23:44.774Z,97574.65
2023-04-07T08:26:47.606Z,97572.27
2023-04-07T08:30:00.468Z,97570.52
2023-04-07T08:33:04.366Z,97564.36
2023-04-07T08:36:07.573Z,97562.47
2023-04-07T08:39:10.671Z,97572.76
2023-04-07T08:42:15.021Z,97572.30
2023-04-07T08:45:19.268Z,97574.98
2023-04-07T08:48:25.867Z,97580.05
2023-04-07T08:51:31.932Z,97580.38
2023-04-07T08:54:35.305Z,97573.63
2023-04-07T08:57:38.625Z,97568.48
2023-04-07T09:00:45.979Z,97565.46
2023-04-07T09:03:50.205Z,97563.84
2023-04-07T09:06:53.370Z,97558.02
2023-04-07T09:09:57.257Z,97556.46
2023-04-07T09:13:00.205Z,97553.52
2023-04-07T09:16:03.479Z,97557.06
2023-04-07T09:19:07.375Z,97556.56
2023-04-07T09:22:12.718Z,97557.20
2023-04-07T09:25:17.032Z,97560.17
2023-04-07T09:28:19.891Z,97559.27
2023-04-07T09:31:28.344Z,97558.73
2023-04-07T09:34:36.219Z,97559.08
2023-04-07T09:37:39.194Z,97562.34
2023-04-07T09:40:42.453Z,97564.61
2023-04-07T09:43:47.064Z,97564.80
2023-04-07T09:46:56.495Z,97562.62
2023-04-07T09:50:06.644Z,97562.85
2023-04-07T09:53:09.880Z,97566.06
2023-04-07T09:56:13.950Z,97564.52
2023-04-07T09:59:17.586Z,97553.17
2023-04-07T10:02:23.111Z,97555.00
2023-04-07T10:05:26.487Z,97557.23
2023-04-07T10:08:32.446Z,97554.98
2023-04-07T10:11:37.698Z,97549.92
2023-04-07T10:14:40.962Z,97551.46
2023-04-07T10:17:48.755Z,97553.34
2023-04-07T10:20:54.633Z,97556.55
2023-04-07T10:24:23.449Z,97554.91
2023-04-07T10:27:35.942Z,97553.85
2023-04-07T10:30:39.974Z,97553.93
2023-04-07T10:33:53.187Z,97556.38
2023-04-07T10:37:13.469Z,97554.96
2023-04-07T10:40:19.639Z,97550.30
2023-04-07T10:43:42.281Z,97550.95
2023-04-07T10:46:45.300Z,97555.08
2023-04-07T10:50:13.188Z,97555.08
2023-04-07T10:53:16.527Z,97556.92
2023-04-07T10:56:19.457Z,97561.51
2023-04-07T10:59:27.897Z,97570.27
2023-04-07T11:02:32.549Z,97566.30
2023-04-07T11:05:38.911Z,97563.96
2023-04-07T11:08:48.230Z,97565.05
2023-04-07T11:11:52.631Z,97563.53
2023-04-07T11:14:56.693Z,97565.21
2023-04-07T11:18:17.762Z,97569.05
2023-04-07T11:21:20.629Z,97570.33
2023-04-07T11:24:39.479Z,97569.42
2023-04-07T11:27:44.782Z,97569.59
2023-04-07T11:30:52.863Z,97566.63
2023-04-07T11:33:59.778Z,97564.20
2023-04-07T11:37:27.495Z,97559.19
2023-04-07T11:40:37.315Z,97553.27
2023-04-07T11:43:42.291Z,97550.68
2023-04-07T11:47:00.609Z,97553.74
2023-04-07T11:50:03.735Z,97551.37
2023-04-07T11:53:06.853Z,97555.22
2023-04-07T11:56:19.064Z,97554.41
2023-04-07T11:59:23.991Z,97553.29
2023-04-07T12:02:38.005Z,97552.44
2023-04-07T12:05:48.048Z,97546.63
2023-04-07T12:08:51.000Z,97544.20
2023-04-07T12:11:54.059Z,97542.36
2023-04-07T12:14:57.052Z,97542.93
2023-04-07T12:18:01.140Z,97540.36
2023-04-07T12:21:04.956Z,97540.77
2023-04-07T12:24:07.864Z,97543.89
2023-04-07T12:27:11.171Z,97538.86
2023-04-07T12:30:14.156Z,97534.66
2023-04-07T12:33:17.161Z,97535.98
2023-04-07T12:36:20.115Z,97538.88
2023-04-07T12:39:22.993Z,97539.18
2023-04-07T12:42:26.419Z,97540.36
2023-04-07T12:45:31.437Z,97537.73
2023-04-07T12:48:34.779Z,97538.57
2023-04-07T12:51:40.130Z,97541.23
2023-04-07T12:54:44.548Z,97543.04
2023-04-07T12:57:47.582Z,97541.36
2023-04-07T13:00:50.622Z,97542.39
2023-04-07T13:03:54.009Z,97544.02
2023-04-07T13:06:57.269Z,97545.48
2023-04-07T13:10:00.183Z,97543.67
2023-04-07T13:13:03.104Z,97546.31
2023-04-07T13:16:06.092Z,97545.64
2023-04-07T13:19:09.649Z,97548.44
2023-04-07T13:22:18.281Z,97553.63
2023-04-07T13:25:24.485Z,97549.46
2023-04-07T13:28:28.138Z,97555.06
2023-04-07T13:31:31.074Z,97554.19
2023-04-07T13:34:35.859Z,97549.48
2023-04-07T13:37:38.768Z,97544.50
2023-04-07T13:40:41.970Z,97539.99
2023-04-07T13:43:44.934Z,97544.71
2023-04-07T13:46:48.189Z,97547.27
2023-04-07T13:49:54.684Z,97551.05
2023-04-07T13:52:57.714Z,97551.08
2023-04-07T13:56:01.241Z,97550.60
2023-04-07T13:59:06.147Z,97550.29
2023-04-07T14:02:09.179Z,97549.16
2023-04-07T14:05:12.337Z,97552.20
2023-04-07T14:08:15.505Z,97552.16
2023-04-07T14:11:38.292Z,97552.46
2023-04-07T14:14:41.314Z,97551.52
2023-04-07T14:17:44.141Z,97552.27
2023-04-07T14:20:47.193Z,97551.14
2023-04-07T14:23:50.250Z,97550.36
2023-04-07T14:26:54.768Z,97557.88
2023-04-07T14:29:59.617Z,97552.37
2023-04-07T14:33:04.937Z,97550.59
2023-04-07T14:36:08.197Z,97551.80
2023-04-07T14:39:12.602Z,97553.73
2023-04-07T14:42:16.350Z,97550.73
2023-04-07T14:45:19.318Z,97546.30
2023-04-07T14:48:22.316Z,97548.05
2023-04-07T14:51:25.207Z,97548.20
2023-04-07T14:54:28.477Z,97549.37
2023-04-07T14:57:31.527Z,97551.44
2023-04-07T15:00:35.107Z,97555.92
2023-04-07T15:03:38.775Z,97553.56
2023-04-07T15:06:43.044Z,97557.79
2023-04-07T15:09:48.411Z,97563.52
2023-04-07T15:12:51.269Z,97564.66
2023-04-07T15:15:54.265Z,97565.99
2023-04-07T15:18:57.148Z,97568.98
2023-04-07T15:21:59.992Z,97567.91
2023-04-07T15:25:05.818Z,97564.20
2023-04-07T15:28:08.880Z,97565.25
2023-04-07T15:31:12.077Z,97567.52
2023-04-07T15:34:14.846Z,97564.75
2023-04-07T15:37:18.905Z,97569.79
2023-04-07T15:40:21.914Z,97567.44
2023-04-07T15:43:25.058Z,97567.48
2023-04-07T15:46:28.079Z,97569.27
2023-04-07T15:49:31.019Z,97569.55
2023-04-07T15:52:33.952Z,97570.52
2023-04-07T15:55:39.556Z,97568.48
2023-04-07T15:58:45.238Z,97570.98
2023-04-07T16:01:48.644Z,97567.67
2023-04-07T16:04:52.331Z,97574.55
2023-04-07T16:07:55.539Z,97570.88
2023-04-07T16:10:58.394Z,97573.83
2023-04-07T16:14:01.399Z,97576.66
2023-04-07T16:17:04.230Z,97577.86
2023-04-07T16:20:14.898Z,97579.58
2023-04-07T16:23:17.864Z,97578.89
2023-04-07T16:26:21.343Z,97576.91
2023-04-07T16:29:24.164Z,97577.72
2023-04-07T16:32:27.116Z,97578.30
2023-04-07T16:35:32.006Z,97584.65
2023-04-07T16:38:35.132Z,97588.41
2023-04-07T16:41:38.052Z,97591.16
2023-04-07T16:44:41.235Z,97597.02
2023-04-07T16:47:49.068Z,97596.11
2023-04-07T16:50:53.258Z,97599.27
2023-04-07T16:53:56.155Z,97597.81
2023-04-07T16:56:59.516Z,97600.46
2023-04-07T17:00:02.750Z,97604.22
2023-04-07T17:03:06.212Z,97602.49
2023-04-07T17:06:09.518Z,97606.30
2023-04-07T17:09:19.261Z,97605.55
2023-04-07T17:13:23.389Z,97609.23
2023-04-07T17:16:15.637Z,97612.46
2023-04-07T17:19:19.868Z,97614.41
2023-04-07T17:22:23.576Z,97618.91
2023-04-07T17:25:27.973Z,97620.79
2023-04-07T17:28:31.743Z,97622.77
2023-04-07T17:31:37.884Z,97626.04
2023-04-07T17:34:41.189Z,97626.23
2023-04-07T17:37:44.413Z,97628.87
2023-04-07T17:40:47.729Z,97625.94
2023-04-07T17:43:51.159Z,97631.17
2023-04-07T17:46:54.891Z,97630.73
2023-04-07T17:49:58.971Z,97632.41
2023-04-07T17:53:02.094Z,97635.42
2023-04-07T17:56:06.012Z,97640.90
2023-04-07T17:59:11.058Z,97643.34
2023-04-07T18:02:14.444Z,97648.13
2023-04-07T18:05:18.126Z,97653.81
2023-04-07T18:08:21.396Z,97656.10
2023-04-07T18:11:24.762Z,97658.31
2023-04-07T18:14:29.117Z,97661.11
2023-04-07T18:17:32.545Z,97666.18
2023-04-07T18:20:36.454Z,97671.26
2023-04-07T18:23:39.786Z,97675.29
2023-04-07T18:26:46.566Z,97672.40
2023-04-07T18:29:50.667Z,97677.27
2023-04-07T18:32:56.970Z,97678.79
2023-04-07T18:36:04.236Z,97682.56
2023-04-07T18:39:09.097Z,97680.42
2023-04-07T18:42:12.723Z,97678.80
2023-04-07T18:45:16.368Z,97678.75
2023-04-07T18:48:20.342Z,97675.56
2023-04-07T18:51:23.490Z,97681.30
2023-04-07T18:54:27.912Z,97682.28
2023-04-07T18:57:30.864Z,97683.29
2023-04-07T19:00:34.152Z,97688.86
2023-04-07T19:03:37.380Z,97689.72
2023-04-07T19:06:40.715Z,97692.10
2023-04-07T19:09:44.111Z,97693.99
2023-04-07T19:12:47.242Z,97693.44
2023-04-07T19:15:51.709Z,97687.15
2023-04-07T19:18:55.580Z,97690.94
2023-04-07T19:21:58.793Z,97689.67
2023-04-07T19:25:01.913Z,97689.63
2023-04-07T19:28:06.102Z,97687.20
2023-04-07T19:31:09.520Z,97687.55
2023-04-07T19:34:12.397Z,97689.23
2023-04-07T19:37:16.325Z,97687.17
2023-04-07T19:40:19.664Z,97682.55
2023-04-07T19:43:22.567Z,97682.96
2023-04-07T19:46:25.786Z,97687.69
2023-04-07T19:49:28.847Z,97685.41
2023-04-07T19:52:33.229Z,97685.95
2023-04-07T19:55:37.290Z,97687.34
2023-04-07T19:58:40.119Z,97688.29
2023-04-07T20:01:43.193Z,97686.91
2023-04-07T20:04:46.431Z,97688.56
2023-04-07T20:07:49.311Z,97688.09
2023-04-07T20:10:52.875Z,97693.17
2023-04-07T20:13:56.113Z,97689.38
2023-04-07T20:16:59.128Z,97692.25
2023-04-07T20:20:02.031Z,97694.89
2023-04-07T20:23:04.934Z,97691.78
2023-04-07T20:26:09.743Z,97691.67
2023-04-07T20:29:12.645Z,97688.20
2023-04-07T20:32:15.698Z,97686.27
2023-04-07T20:35:18.669Z,97688.45
2023-04-07T20:38:21.695Z,97694.20
2023-04-07T20:41:24.499Z,97686.92
2023-04-07T20:44:35.274Z,97689.70
2023-04-07T20:47:42.418Z,97692.09
2023-04-07T20:50:45.327Z,97689.98
2023-04-07T20:53:48.480Z,97689.50
2023-04-07T20:56:51.416Z,97690.20
2023-04-07T20:59:54.303Z,97689.77
2023-04-07T21:02:57.385Z,97697.29
2023-04-07T21:06:00.342Z,97696.84
2023-04-07T21:09:05.705Z,97700.62
2023-04-07T21:12:08.711Z,97699.20
2023-04-07T21:15:11.978Z,97700.73
2023-04-07T21:18:15.083Z,97706.16
2023-04-07T21:21:17.988Z,97705.02
2023-04-07T21:24:21.844Z,97706.15
2023-04-07T21:27:24.743Z,97709.40
2023-04-07T21:30:27.581Z,97708.85
2023-04-07T21:33:30.616Z,97712.33
2023-04-07T21:36:33.894Z,97712.06
2023-04-07T21:39:36.708Z,97712.11
2023-04-07T21:42:39.585Z,97708.58
2023-04-07T21:45:42.616Z,97705.48
2023-04-07T21:48:45.777Z,97705.96
2023-04-07T21:51:49.361Z,97706.16
2023-04-07T21:54:52.699Z,97702.77
2023-04-07T21:57:55.592Z,97704.37
2023-04-07T22:00:58.431Z,97704.04
2023-04-07T22:04:01.458Z,97707.94
2023-04-07T22:07:05.505Z,97710.65
2023-04-07T22:10:09.067Z,97713.83
2023-04-07T22:13:11.889Z,97713.14
2023-04-07T22:16:14.885Z,97715.70
2023-04-07T22:19:18.460Z,97718.58
2023-04-07T22:22:21.385Z,97716.09
2023-04-07T22:25:24.551Z,97716.48
2023-04-07T22:28:27.438Z,97713.38
2023-04-07T22:31:30.465Z,97712.86
2023-04-07T22:34:34.633Z,97712.80
2023-04-07T22:37:37.805Z,97710.31
2023-04-07T22:40:42.067Z,97709.44
2023-04-07T22:43:45.071Z,97711.45
2023-04-07T22:46:49.043Z,97712.06
2023-04-07T22:49:52.022Z,97713.45
2023-04-07T22:52:55.454Z,97714.59
2023-04-07T22:55:58.549Z,97715.91
2023-04-07T22:59:05.812Z,97717.98
2023-04-07T23:02:09.066Z,97719.96
2023-04-07T23:05:12.435Z,97721.39
2023-04-07T23:08:15.640Z,97721.32
2023-04-07T23:11:22.495Z,97723.05
2023-04-07T23:14:25.841Z,97717.13
2023-04-07T23:17:29.894Z,97718.21
2023-04-07T23:20:33.117Z,97715.32
2023-04-07T23:23:37.343Z,97709.35
2023-04-07T23:26:40.368Z,97705.55
2023-04-07T23:29:43.375Z,97703.61
2023-04-07T23:32:46.966Z,97699.48
2023-04-07T23:35:50.783Z,97703.67
2023-04-07T23:38:56.350Z,97705.84
2023-04-07T23:41:59.383Z,97703.94
2023-04-07T23:45:02.554Z,97703.48
2023-04-07T23:48:06.292Z,97700.06
2023-04-07T23:51:09.384Z,97702.15
2023-04-07T23:54:12.532Z,97699.86
2023-04-07T23:57:15.631Z,97697.57
